Huvudsida
METAR-TAF:

METAR-TAF

Flygplatser :

New Orleans, Louisiana, USA

latitud: 29-59-34N, longitud: 090-15-03W, höjd: 1 m

Aktuellt väderrapport

Denna rapport gjordes för 1 timme och 5 minuter sedan, klockan 07:53 UTC
Vind 4 kt från nord/nordväst
Temperatur 11°C
Fuktighet 87%
Tryck 1022 hPa
Sikt: 16.1 km
Brutna moln på en höjd av 1500 ft
Mulet på en höjd av 3100 ft

METAR: KMSY 160753Z 34004KT 10SM BKN015 OVC031 11/09 A3019 RMK AO2 SLP226 T01110094

Tid: 02:58 (08:58 UTC)

Väderprognos

Denna rapport gjordes för 3 timmar och 23 minuter sedan, klockan 05:35 UTC
Prognos gäller från 16 kl. 06 UTC till 17 kl. 12 UTC
Vind 7 kt från nordväst
Sikt: 10 km
Brutna moln på en höjd av 1500 ft
Mulet på en höjd av 3500 ft
Från 16 kl. 1800 UTC
Vind 6 kt från nord
Sikt: 10 km
Spridda moln på en höjd av 4000 ft

TAF: KMSY 160535Z 1606/1712 32007KT P6SM BKN015 OVC035 FM161800 36006KT P6SM SCT040

Aktuella väderrapporter och prognoser från 4000 flygplatser (METAR- och TAF-rapporter).

De tillgängliga stationerna syns som gula och röda prickar på kartan.

För musen över prickarna för att se namnen på stationerna.

Klicka sedan för att få väderrapporter och prognoser.

För att ändra kartan: Klicka på de gröna knapparna med ett svart kors på för att zooma in; den gröna knappen med ett streck på för att zooma ut; eller på de gröna pilarna för angränsande kartor.


METAR-TAF: